sensor_id;sensor_type;location;lat;lon;timestamp;pressure;altitude;pressure_sealevel;temperature;humidity
60642;BME280;46837;52.446;-1.930;2023-05-08T00:00:09;100537.35;;;14.21;70.76
60642;BME280;46837;52.446;-1.930;2023-05-08T00:01:09;100535.92;;;14.20;70.96
60642;BME280;46837;52.446;-1.930;2023-05-08T00:02:09;100534.87;;;14.21;70.98
60642;BME280;46837;52.446;-1.930;2023-05-08T00:03:09;100535.22;;;14.17;71.16
60642;BME280;46837;52.446;-1.930;2023-05-08T00:04:09;100532.92;;;14.15;71.23
60642;BME280;46837;52.446;-1.930;2023-05-08T00:05:09;100537.45;;;14.12;71.50
60642;BME280;46837;52.446;-1.930;2023-05-08T00:06:09;100533.84;;;14.09;71.64
60642;BME280;46837;52.446;-1.930;2023-05-08T00:07:09;100533.34;;;14.08;71.87
60642;BME280;46837;52.446;-1.930;2023-05-08T00:08:09;100534.57;;;14.04;72.05
60642;BME280;46837;52.446;-1.930;2023-05-08T00:09:09;100533.09;;;14.04;72.15
60642;BME280;46837;52.446;-1.930;2023-05-08T00:10:09;100532.79;;;13.98;72.44
60642;BME280;46837;52.446;-1.930;2023-05-08T00:11:09;100532.28;;;13.93;72.72
60642;BME280;46837;52.446;-1.930;2023-05-08T00:12:09;100532.09;;;13.93;72.88
60642;BME280;46837;52.446;-1.930;2023-05-08T00:13:09;100528.96;;;13.85;73.26
60642;BME280;46837;52.446;-1.930;2023-05-08T00:14:09;100524.22;;;13.90;73.17
60642;BME280;46837;52.446;-1.930;2023-05-08T00:15:09;100526.82;;;13.84;73.33
60642;BME280;46837;52.446;-1.930;2023-05-08T00:16:09;100524.77;;;13.87;73.33
60642;BME280;46837;52.446;-1.930;2023-05-08T00:17:09;100526.31;;;13.88;73.21
60642;BME280;46837;52.446;-1.930;2023-05-08T00:18:09;100524.07;;;13.84;73.42
60642;BME280;46837;52.446;-1.930;2023-05-08T00:19:09;100527.22;;;13.81;73.49
60642;BME280;46837;52.446;-1.930;2023-05-08T00:20:09;100526.67;;;13.80;73.71
60642;BME280;46837;52.446;-1.930;2023-05-08T00:21:09;100529.54;;;13.76;73.81
60642;BME280;46837;52.446;-1.930;2023-05-08T00:22:09;100530.21;;;13.73;73.99
60642;BME280;46837;52.446;-1.930;2023-05-08T00:23:09;100531.33;;;13.70;74.19
60642;BME280;46837;52.446;-1.930;2023-05-08T00:24:09;100534.78;;;13.74;74.01
60642;BME280;46837;52.446;-1.930;2023-05-08T00:25:09;100532.47;;;13.75;74.00
60642;BME280;46837;52.446;-1.930;2023-05-08T00:26:09;100532.38;;;13.71;74.11
60642;BME280;46837;52.446;-1.930;2023-05-08T00:27:09;100532.39;;;13.66;74.24
60642;BME280;46837;52.446;-1.930;2023-05-08T00:28:09;100531.30;;;13.63;74.41
60642;BME280;46837;52.446;-1.930;2023-05-08T00:29:09;100532.95;;;13.65;74.38
60642;BME280;46837;52.446;-1.930;2023-05-08T00:30:09;100527.83;;;13.67;74.34
60642;BME280;46837;52.446;-1.930;2023-05-08T00:31:09;100531.55;;;13.70;74.15
60642;BME280;46837;52.446;-1.930;2023-05-08T00:32:09;100531.17;;;13.71;74.03
60642;BME280;46837;52.446;-1.930;2023-05-08T00:33:09;100528.84;;;13.73;73.92
60642;BME280;46837;52.446;-1.930;2023-05-08T00:34:09;100530.29;;;13.72;73.98
60642;BME280;46837;52.446;-1.930;2023-05-08T00:35:09;100532.82;;;13.71;74.01
60642;BME280;46837;52.446;-1.930;2023-05-08T00:36:09;100535.62;;;13.66;74.04
60642;BME280;46837;52.446;-1.930;2023-05-08T00:37:09;100534.48;;;13.67;74.09
60642;BME280;46837;52.446;-1.930;2023-05-08T00:38:09;100533.76;;;13.66;74.13
60642;BME280;46837;52.446;-1.930;2023-05-08T00:39:09;100533.43;;;13.67;74.02
60642;BME280;46837;52.446;-1.930;2023-05-08T00:40:09;100528.27;;;13.66;74.00
60642;BME280;46837;52.446;-1.930;2023-05-08T00:41:09;100528.39;;;13.63;74.08
60642;BME280;46837;52.446;-1.930;2023-05-08T00:42:09;100527.73;;;13.64;74.05
60642;BME280;46837;52.446;-1.930;2023-05-08T00:43:09;100523.52;;;13.61;74.06
60642;BME280;46837;52.446;-1.930;2023-05-08T00:44:09;100521.99;;;13.55;74.25
60642;BME280;46837;52.446;-1.930;2023-05-08T00:45:09;100524.00;;;13.51;74.47
60642;BME280;46837;52.446;-1.930;2023-05-08T00:46:09;100523.44;;;13.48;74.63
60642;BME280;46837;52.446;-1.930;2023-05-08T00:47:09;100524.30;;;13.44;74.67
60642;BME280;46837;52.446;-1.930;2023-05-08T00:48:09;100525.05;;;13.47;74.56
60642;BME280;46837;52.446;-1.930;2023-05-08T00:49:09;100521.23;;;13.41;74.74
60642;BME280;46837;52.446;-1.930;2023-05-08T00:50:09;100516.99;;;13.42;74.80
60642;BME280;46837;52.446;-1.930;2023-05-08T00:51:09;100517.82;;;13.38;74.84
60642;BME280;46837;52.446;-1.930;2023-05-08T00:52:10;100516.58;;;13.37;74.91
60642;BME280;46837;52.446;-1.930;2023-05-08T00:53:09;100520.47;;;13.36;74.92
60642;BME280;46837;52.446;-1.930;2023-05-08T00:54:09;100518.33;;;13.35;74.89
60642;BME280;46837;52.446;-1.930;2023-05-08T00:55:09;100516.86;;;13.34;74.87
60642;BME280;46837;52.446;-1.930;2023-05-08T00:56:10;100519.00;;;13.32;74.84
60642;BME280;46837;52.446;-1.930;2023-05-08T00:57:09;100515.77;;;13.33;74.74
60642;BME280;46837;52.446;-1.930;2023-05-08T00:58:09;100514.45;;;13.33;74.71
60642;BME280;46837;52.446;-1.930;2023-05-08T00:59:10;100513.29;;;13.32;74.76
60642;BME280;46837;52.446;-1.930;2023-05-08T01:00:09;100512.14;;;13.33;74.75
60642;BME280;46837;52.446;-1.930;2023-05-08T01:01:09;100514.00;;;13.32;74.66
60642;BME280;46837;52.446;-1.930;2023-05-08T01:02:09;100515.18;;;13.27;74.77
60642;BME280;46837;52.446;-1.930;2023-05-08T01:03:09;100518.74;;;13.24;74.80
60642;BME280;46837;52.446;-1.930;2023-05-08T01:04:09;100517.03;;;13.19;74.85
60642;BME280;46837;52.446;-1.930;2023-05-08T01:05:09;100517.95;;;13.17;74.87
60642;BME280;46837;52.446;-1.930;2023-05-08T01:06:09;100515.77;;;13.10;75.00
60642;BME280;46837;52.446;-1.930;2023-05-08T01:07:09;100517.59;;;13.10;75.00
60642;BME280;46837;52.446;-1.930;2023-05-08T01:08:09;100516.60;;;13.06;75.02
60642;BME280;46837;52.446;-1.930;2023-05-08T01:09:09;100516.12;;;13.09;75.05
60642;BME280;46837;52.446;-1.930;2023-05-08T01:10:09;100517.88;;;13.01;75.05
60642;BME280;46837;52.446;-1.930;2023-05-08T01:14:59;100516.90;;;12.93;75.24
60642;BME280;46837;52.446;-1.930;2023-05-08T01:16:14;100511.19;;;12.96;75.08
60642;BME280;46837;52.446;-1.930;2023-05-08T01:17:22;100512.34;;;12.93;75.04
60642;BME280;46837;52.446;-1.930;2023-05-08T01:18:16;100512.67;;;12.88;75.16
60642;BME280;46837;52.446;-1.930;2023-05-08T01:19:22;100509.07;;;12.88;75.23
60642;BME280;46837;52.446;-1.930;2023-05-08T01:20:16;100513.12;;;12.83;75.24
60642;BME280;46837;52.446;-1.930;2023-05-08T01:24:18;100512.07;;;12.85;75.13
60642;BME280;46837;52.446;-1.930;2023-05-08T01:27:17;100504.62;;;12.94;74.60
60642;BME280;46837;52.446;-1.930;2023-05-08T01:30:19;100502.63;;;13.00;74.19
60642;BME280;46837;52.446;-1.930;2023-05-08T01:33:12;100501.27;;;12.98;74.07
60642;BME280;46837;52.446;-1.930;2023-05-08T01:34:20;100500.05;;;12.96;74.11
60642;BME280;46837;52.446;-1.930;2023-05-08T01:37:11;100494.25;;;12.86;74.47
60642;BME280;46837;52.446;-1.930;2023-05-08T01:38:21;100494.26;;;12.83;74.38
60642;BME280;46837;52.446;-1.930;2023-05-08T01:39:25;100494.63;;;12.81;74.44
60642;BME280;46837;52.446;-1.930;2023-05-08T01:41:14;100497.32;;;12.89;74.47
60642;BME280;46837;52.446;-1.930;2023-05-08T01:42:17;100494.25;;;12.91;74.21
60642;BME280;46837;52.446;-1.930;2023-05-08T01:44:18;100495.18;;;12.90;74.27
60642;BME280;46837;52.446;-1.930;2023-05-08T01:46:16;100492.49;;;12.94;74.07
60642;BME280;46837;52.446;-1.930;2023-05-08T01:47:09;100491.00;;;12.97;74.01
60642;BME280;46837;52.446;-1.930;2023-05-08T01:49:10;100488.42;;;12.96;73.79
60642;BME280;46837;52.446;-1.930;2023-05-08T01:50:15;100485.58;;;12.94;73.89
60642;BME280;46837;52.446;-1.930;2023-05-08T01:51:13;100485.86;;;12.90;74.06
60642;BME280;46837;52.446;-1.930;2023-05-08T01:52:17;100484.33;;;12.92;74.08
60642;BME280;46837;52.446;-1.930;2023-05-08T01:54:11;100479.61;;;12.85;74.20
60642;BME280;46837;52.446;-1.930;2023-05-08T01:55:15;100479.39;;;12.91;74.06
60642;BME280;46837;52.446;-1.930;2023-05-08T01:56:09;100477.35;;;12.93;73.94
60642;BME280;46837;52.446;-1.930;2023-05-08T01:57:09;100477.04;;;12.87;74.08
60642;BME280;46837;52.446;-1.930;2023-05-08T01:58:09;100473.91;;;12.88;74.01
60642;BME280;46837;52.446;-1.930;2023-05-08T01:59:09;100475.61;;;12.91;74.04
60642;BME280;46837;52.446;-1.930;2023-05-08T02:00:09;100476.47;;;12.92;73.88
60642;BME280;46837;52.446;-1.930;2023-05-08T02:01:09;100472.07;;;12.95;73.78
60642;BME280;46837;52.446;-1.930;2023-05-08T02:02:09;100475.58;;;12.95;73.71
60642;BME280;46837;52.446;-1.930;2023-05-08T02:03:09;100472.69;;;12.89;73.87
60642;BME280;46837;52.446;-1.930;2023-05-08T02:04:09;100471.71;;;12.95;73.84
60642;BME280;46837;52.446;-1.930;2023-05-08T02:05:09;100468.68;;;12.92;73.78
60642;BME280;46837;52.446;-1.930;2023-05-08T02:06:09;100468.19;;;12.93;73.72
60642;BME280;46837;52.446;-1.930;2023-05-08T02:07:09;100469.57;;;12.90;73.65
60642;BME280;46837;52.446;-1.930;2023-05-08T02:08:10;100471.15;;;12.93;73.66
60642;BME280;46837;52.446;-1.930;2023-05-08T02:09:09;100470.28;;;12.91;73.67
60642;BME280;46837;52.446;-1.930;2023-05-08T02:10:09;100471.55;;;12.88;73.81
60642;BME280;46837;52.446;-1.930;2023-05-08T02:11:09;100473.70;;;12.88;73.74
60642;BME280;46837;52.446;-1.930;2023-05-08T02:12:09;100471.38;;;12.90;73.66
60642;BME280;46837;52.446;-1.930;2023-05-08T02:13:09;100467.54;;;12.86;73.66
60642;BME280;46837;52.446;-1.930;2023-05-08T02:14:09;100470.02;;;12.75;73.96
60642;BME280;46837;52.446;-1.930;2023-05-08T02:15:09;100470.52;;;12.71;74.22
60642;BME280;46837;52.446;-1.930;2023-05-08T02:16:09;100471.94;;;12.75;74.15
60642;BME280;46837;52.446;-1.930;2023-05-08T02:17:09;100466.36;;;12.70;74.22
60642;BME280;46837;52.446;-1.930;2023-05-08T02:18:09;100470.91;;;12.73;74.26
60642;BME280;46837;52.446;-1.930;2023-05-08T02:19:09;100470.80;;;12.73;74.18
60642;BME280;46837;52.446;-1.930;2023-05-08T02:20:09;100465.87;;;12.70;74.25
60642;BME280;46837;52.446;-1.930;2023-05-08T02:21:09;100467.57;;;12.65;74.29
60642;BME280;46837;52.446;-1.930;2023-05-08T02:22:09;100466.31;;;12.66;74.44
60642;BME280;46837;52.446;-1.930;2023-05-08T02:23:09;100462.86;;;12.63;74.49
60642;BME280;46837;52.446;-1.930;2023-05-08T02:24:09;100461.42;;;12.64;74.44
60642;BME280;46837;52.446;-1.930;2023-05-08T02:25:09;100463.20;;;12.56;74.59
60642;BME280;46837;52.446;-1.930;2023-05-08T02:26:09;100463.95;;;12.54;74.86
60642;BME280;46837;52.446;-1.930;2023-05-08T02:27:09;100465.16;;;12.61;74.83
60642;BME280;46837;52.446;-1.930;2023-05-08T02:28:09;100464.99;;;12.61;74.59
60642;BME280;46837;52.446;-1.930;2023-05-08T02:29:09;100460.17;;;12.65;74.47
60642;BME280;46837;52.446;-1.930;2023-05-08T02:30:09;100459.35;;;12.70;74.37
60642;BME280;46837;52.446;-1.930;2023-05-08T02:31:11;100457.53;;;12.72;74.21
60642;BME280;46837;52.446;-1.930;2023-05-08T02:32:09;100457.32;;;12.66;74.34
60642;BME280;46837;52.446;-1.930;2023-05-08T02:33:09;100458.53;;;12.62;74.32
60642;BME280;46837;52.446;-1.930;2023-05-08T02:34:09;100458.48;;;12.60;74.59
60642;BME280;46837;52.446;-1.930;2023-05-08T02:35:12;100458.35;;;12.64;74.48
60642;BME280;46837;52.446;-1.930;2023-05-08T02:36:09;100451.84;;;12.66;74.42
60642;BME280;46837;52.446;-1.930;2023-05-08T02:37:09;100453.68;;;12.67;74.30
60642;BME280;46837;52.446;-1.930;2023-05-08T02:38:12;100456.39;;;12.70;74.23
60642;BME280;46837;52.446;-1.930;2023-05-08T02:39:11;100452.05;;;12.74;74.17
60642;BME280;46837;52.446;-1.930;2023-05-08T02:40:09;100451.33;;;12.76;74.10
60642;BME280;46837;52.446;-1.930;2023-05-08T02:41:09;100452.32;;;12.76;74.01
60642;BME280;46837;52.446;-1.930;2023-05-08T02:42:09;100446.94;;;12.80;73.84
60642;BME280;46837;52.446;-1.930;2023-05-08T02:43:09;100447.86;;;12.74;73.89
60642;BME280;46837;52.446;-1.930;2023-05-08T02:44:09;100449.75;;;12.70;73.98
60642;BME280;46837;52.446;-1.930;2023-05-08T02:45:09;100446.95;;;12.74;73.99
60642;BME280;46837;52.446;-1.930;2023-05-08T02:46:16;100444.09;;;12.72;74.08
60642;BME280;46837;52.446;-1.930;2023-05-08T02:47:19;100444.36;;;12.67;74.14
60642;BME280;46837;52.446;-1.930;2023-05-08T02:48:20;100445.95;;;12.71;74.10
60642;BME280;46837;52.446;-1.930;2023-05-08T02:49:15;100445.84;;;12.74;73.95
60642;BME280;46837;52.446;-1.930;2023-05-08T02:50:17;100448.43;;;12.70;74.04
60642;BME280;46837;52.446;-1.930;2023-05-08T02:51:17;100446.23;;;12.68;74.31
60642;BME280;46837;52.446;-1.930;2023-05-08T02:53:11;100443.15;;;12.80;73.91
60642;BME280;46837;52.446;-1.930;2023-05-08T02:54:09;100441.56;;;12.84;73.79
60642;BME280;46837;52.446;-1.930;2023-05-08T02:56:14;100440.96;;;12.80;73.85
60642;BME280;46837;52.446;-1.930;2023-05-08T02:59:16;100430.07;;;12.90;73.76
60642;BME280;46837;52.446;-1.930;2023-05-08T03:01:15;100432.63;;;12.96;73.35
60642;BME280;46837;52.446;-1.930;2023-05-08T03:02:14;100426.27;;;12.98;73.34
60642;BME280;46837;52.446;-1.930;2023-05-08T03:03:18;100427.67;;;13.03;73.19
60642;BME280;46837;52.446;-1.930;2023-05-08T03:04:09;100427.08;;;13.00;73.19
60642;BME280;46837;52.446;-1.930;2023-05-08T03:05:14;100423.91;;;12.97;73.34
60642;BME280;46837;52.446;-1.930;2023-05-08T03:06:11;100423.18;;;12.99;73.17
60642;BME280;46837;52.446;-1.930;2023-05-08T03:07:09;100424.07;;;12.95;73.29
60642;BME280;46837;52.446;-1.930;2023-05-08T03:08:14;100423.64;;;12.96;73.29
60642;BME280;46837;52.446;-1.930;2023-05-08T03:09:15;100422.61;;;12.95;73.29
60642;BME280;46837;52.446;-1.930;2023-05-08T03:10:11;100420.23;;;12.95;73.34
60642;BME280;46837;52.446;-1.930;2023-05-08T03:11:15;100419.69;;;12.97;73.27
60642;BME280;46837;52.446;-1.930;2023-05-08T03:12:14;100417.65;;;12.95;73.20
60642;BME280;46837;52.446;-1.930;2023-05-08T03:13:09;100419.53;;;12.92;73.33
60642;BME280;46837;52.446;-1.930;2023-05-08T03:14:12;100415.80;;;12.94;73.22
60642;BME280;46837;52.446;-1.930;2023-05-08T03:16:14;100412.23;;;12.96;73.15
60642;BME280;46837;52.446;-1.930;2023-05-08T03:17:10;100409.69;;;12.99;73.06
60642;BME280;46837;52.446;-1.930;2023-05-08T03:18:14;100405.57;;;12.99;72.90
60642;BME280;46837;52.446;-1.930;2023-05-08T03:19:16;100409.59;;;13.01;72.83
60642;BME280;46837;52.446;-1.930;2023-05-08T03:20:10;100408.10;;;13.00;72.77
60642;BME280;46837;52.446;-1.930;2023-05-08T03:21:09;100413.08;;;13.04;72.67
60642;BME280;46837;52.446;-1.930;2023-05-08T03:22:09;100408.68;;;13.06;72.76
60642;BME280;46837;52.446;-1.930;2023-05-08T03:23:09;100409.39;;;13.06;72.74
60642;BME280;46837;52.446;-1.930;2023-05-08T03:24:09;100406.59;;;13.06;72.82
60642;BME280;46837;52.446;-1.930;2023-05-08T03:25:09;100410.20;;;13.10;72.63
60642;BME280;46837;52.446;-1.930;2023-05-08T03:26:09;100409.64;;;13.13;72.51
60642;BME280;46837;52.446;-1.930;2023-05-08T03:27:09;100408.50;;;13.15;72.33
60642;BME280;46837;52.446;-1.930;2023-05-08T03:28:09;100406.72;;;13.17;72.21
60642;BME280;46837;52.446;-1.930;2023-05-08T03:29:09;100404.35;;;13.06;72.33
60642;BME280;46837;52.446;-1.930;2023-05-08T03:30:09;100405.76;;;13.09;72.24
60642;BME280;46837;52.446;-1.930;2023-05-08T03:31:09;100405.56;;;13.08;72.27
60642;BME280;46837;52.446;-1.930;2023-05-08T03:32:09;100407.86;;;13.07;72.14
60642;BME280;46837;52.446;-1.930;2023-05-08T03:33:09;100409.78;;;13.08;72.09
60642;BME280;46837;52.446;-1.930;2023-05-08T03:34:10;100407.91;;;13.07;72.01
60642;BME280;46837;52.446;-1.930;2023-05-08T03:35:09;100409.85;;;13.05;72.16
60642;BME280;46837;52.446;-1.930;2023-05-08T03:36:09;100407.05;;;13.05;71.88
60642;BME280;46837;52.446;-1.930;2023-05-08T03:37:09;100407.11;;;13.05;71.94
60642;BME280;46837;52.446;-1.930;2023-05-08T03:38:09;100401.45;;;13.03;72.02
60642;BME280;46837;52.446;-1.930;2023-05-08T03:39:09;100403.87;;;13.05;71.80
60642;BME280;46837;52.446;-1.930;2023-05-08T03:40:09;100405.79;;;13.05;71.85
60642;BME280;46837;52.446;-1.930;2023-05-08T03:41:09;100400.98;;;13.02;71.93
60642;BME280;46837;52.446;-1.930;2023-05-08T03:42:09;100402.26;;;12.95;72.21
60642;BME280;46837;52.446;-1.930;2023-05-08T03:43:09;100402.25;;;12.97;71.93
60642;BME280;46837;52.446;-1.930;2023-05-08T03:44:09;100402.63;;;12.92;72.00
60642;BME280;46837;52.446;-1.930;2023-05-08T03:45:09;100406.41;;;12.97;71.98
60642;BME280;46837;52.446;-1.930;2023-05-08T03:46:10;100406.73;;;13.01;71.90
60642;BME280;46837;52.446;-1.930;2023-05-08T03:47:09;100405.52;;;13.00;71.88
60642;BME280;46837;52.446;-1.930;2023-05-08T03:48:09;100404.28;;;12.98;71.90
60642;BME280;46837;52.446;-1.930;2023-05-08T03:49:09;100408.72;;;12.97;71.91
60642;BME280;46837;52.446;-1.930;2023-05-08T03:50:09;100404.44;;;12.98;71.95
60642;BME280;46837;52.446;-1.930;2023-05-08T03:51:09;100403.45;;;12.95;71.97
60642;BME280;46837;52.446;-1.930;2023-05-08T03:52:09;100401.71;;;12.94;72.04
60642;BME280;46837;52.446;-1.930;2023-05-08T03:53:09;100403.56;;;12.97;72.00
60642;BME280;46837;52.446;-1.930;2023-05-08T03:54:09;100402.75;;;12.95;71.99
60642;BME280;46837;52.446;-1.930;2023-05-08T03:55:09;100402.75;;;12.94;72.00
60642;BME280;46837;52.446;-1.930;2023-05-08T03:56:09;100399.73;;;12.93;72.07
60642;BME280;46837;52.446;-1.930;2023-05-08T03:57:09;100404.45;;;12.92;72.23
60642;BME280;46837;52.446;-1.930;2023-05-08T03:58:17;100401.16;;;12.94;71.99
60642;BME280;46837;52.446;-1.930;2023-05-08T03:59:13;100400.29;;;12.95;72.00
60642;BME280;46837;52.446;-1.930;2023-05-08T04:00:18;100401.65;;;12.94;72.04
60642;BME280;46837;52.446;-1.930;2023-05-08T04:01:13;100400.57;;;12.92;71.99
60642;BME280;46837;52.446;-1.930;2023-05-08T04:03:20;100401.26;;;12.92;71.98
60642;BME280;46837;52.446;-1.930;2023-05-08T04:05:18;100400.06;;;12.93;71.99
60642;BME280;46837;52.446;-1.930;2023-05-08T04:06:14;100398.24;;;12.98;71.89
60642;BME280;46837;52.446;-1.930;2023-05-08T04:08:16;100394.82;;;12.99;71.71
60642;BME280;46837;52.446;-1.930;2023-05-08T04:09:13;100395.49;;;13.01;71.58
60642;BME280;46837;52.446;-1.930;2023-05-08T04:10:15;100395.53;;;13.03;71.62
60642;BME280;46837;52.446;-1.930;2023-05-08T04:13:17;100394.56;;;12.96;71.75
60642;BME280;46837;52.446;-1.930;2023-05-08T04:14:15;100393.12;;;12.99;71.56
60642;BME280;46837;52.446;-1.930;2023-05-08T04:15:16;100393.99;;;13.04;71.42
60642;BME280;46837;52.446;-1.930;2023-05-08T04:16:16;100390.10;;;13.05;71.27
60642;BME280;46837;52.446;-1.930;2023-05-08T04:17:10;100391.56;;;13.07;71.24
60642;BME280;46837;52.446;-1.930;2023-05-08T04:18:09;100392.17;;;13.09;71.31
60642;BME280;46837;52.446;-1.930;2023-05-08T04:19:17;100393.98;;;13.06;71.27
60642;BME280;46837;52.446;-1.930;2023-05-08T04:20:10;100392.67;;;13.03;71.33
60642;BME280;46837;52.446;-1.930;2023-05-08T04:21:09;100390.15;;;13.03;71.31
60642;BME280;46837;52.446;-1.930;2023-05-08T04:22:09;100394.98;;;13.05;71.23
60642;BME280;46837;52.446;-1.930;2023-05-08T04:23:09;100389.12;;;13.00;71.31
60642;BME280;46837;52.446;-1.930;2023-05-08T04:24:09;100389.41;;;12.98;71.36
60642;BME280;46837;52.446;-1.930;2023-05-08T04:25:09;100391.37;;;13.00;71.40
60642;BME280;46837;52.446;-1.930;2023-05-08T04:26:09;100390.97;;;13.03;71.30
60642;BME280;46837;52.446;-1.930;2023-05-08T04:27:09;100391.55;;;12.97;71.44
60642;BME280;46837;52.446;-1.930;2023-05-08T04:28:09;100386.10;;;12.99;71.38
60642;BME280;46837;52.446;-1.930;2023-05-08T04:29:09;100386.16;;;12.99;71.14
60642;BME280;46837;52.446;-1.930;2023-05-08T04:30:09;100387.05;;;12.96;71.22
60642;BME280;46837;52.446;-1.930;2023-05-08T04:31:09;100388.49;;;12.94;71.37
60642;BME280;46837;52.446;-1.930;2023-05-08T04:32:09;100386.24;;;12.93;71.35
60642;BME280;46837;52.446;-1.930;2023-05-08T04:33:09;100384.22;;;12.91;71.35
60642;BME280;46837;52.446;-1.930;2023-05-08T04:34:09;100386.57;;;12.94;71.42
60642;BME280;46837;52.446;-1.930;2023-05-08T04:35:09;100385.86;;;12.94;71.39
60642;BME280;46837;52.446;-1.930;2023-05-08T04:36:11;100387.24;;;12.91;71.47
60642;BME280;46837;52.446;-1.930;2023-05-08T04:37:17;100384.34;;;12.87;71.37
60642;BME280;46837;52.446;-1.930;2023-05-08T04:38:09;100385.07;;;12.84;71.62
60642;BME280;46837;52.446;-1.930;2023-05-08T04:39:09;100388.18;;;12.87;71.48
60642;BME280;46837;52.446;-1.930;2023-05-08T04:40:09;100387.04;;;12.83;71.60
60642;BME280;46837;52.446;-1.930;2023-05-08T04:41:09;100385.73;;;12.84;71.58
60642;BME280;46837;52.446;-1.930;2023-05-08T04:42:09;100386.09;;;12.85;71.55
60642;BME280;46837;52.446;-1.930;2023-05-08T04:43:09;100385.66;;;12.82;71.57
60642;BME280;46837;52.446;-1.930;2023-05-08T04:44:09;100386.29;;;12.76;71.72
60642;BME280;46837;52.446;-1.930;2023-05-08T04:45:09;100387.33;;;12.75;71.76
60642;BME280;46837;52.446;-1.930;2023-05-08T04:46:09;100386.07;;;12.76;71.72
60642;BME280;46837;52.446;-1.930;2023-05-08T04:47:09;100385.51;;;12.80;71.62
60642;BME280;46837;52.446;-1.930;2023-05-08T04:48:09;100389.84;;;12.79;71.59
60642;BME280;46837;52.446;-1.930;2023-05-08T04:49:09;100389.34;;;12.81;71.58
60642;BME280;46837;52.446;-1.930;2023-05-08T04:50:09;100389.95;;;12.83;71.42
60642;BME280;46837;52.446;-1.930;2023-05-08T04:51:09;100390.38;;;12.83;71.32
60642;BME280;46837;52.446;-1.930;2023-05-08T04:52:09;100392.35;;;12.82;71.41
60642;BME280;46837;52.446;-1.930;2023-05-08T04:53:09;100389.12;;;12.83;71.32
60642;BME280;46837;52.446;-1.930;2023-05-08T04:54:09;100389.99;;;12.85;71.18
60642;BME280;46837;52.446;-1.930;2023-05-08T04:55:09;100386.94;;;12.81;71.29
60642;BME280;46837;52.446;-1.930;2023-05-08T04:56:09;100386.82;;;12.84;71.27
60642;BME280;46837;52.446;-1.930;2023-05-08T04:57:09;100384.28;;;12.85;71.22
60642;BME280;46837;52.446;-1.930;2023-05-08T04:58:09;100386.08;;;12.88;71.07
60642;BME280;46837;52.446;-1.930;2023-05-08T04:59:09;100385.91;;;12.93;71.01
60642;BME280;46837;52.446;-1.930;2023-05-08T05:00:09;100385.03;;;12.94;71.04
60642;BME280;46837;52.446;-1.930;2023-05-08T05:01:09;100383.82;;;12.98;71.07
60642;BME280;46837;52.446;-1.930;2023-05-08T05:02:10;100383.59;;;12.95;70.97
60642;BME280;46837;52.446;-1.930;2023-05-08T05:03:09;100379.38;;;12.94;70.95
60642;BME280;46837;52.446;-1.930;2023-05-08T05:04:09;100385.18;;;12.97;70.87
60642;BME280;46837;52.446;-1.930;2023-05-08T05:05:09;100380.07;;;12.99;71.16
60642;BME280;46837;52.446;-1.930;2023-05-08T05:06:09;100382.16;;;13.02;70.86
60642;BME280;46837;52.446;-1.930;2023-05-08T05:07:09;100379.29;;;13.03;70.79
60642;BME280;46837;52.446;-1.930;2023-05-08T05:08:09;100384.88;;;12.89;71.06
60642;BME280;46837;52.446;-1.930;2023-05-08T05:09:09;100383.51;;;12.90;71.17
60642;BME280;46837;52.446;-1.930;2023-05-08T05:10:09;100383.52;;;12.86;71.27
60642;BME280;46837;52.446;-1.930;2023-05-08T05:11:09;100382.27;;;12.84;71.29
60642;BME280;46837;52.446;-1.930;2023-05-08T05:12:09;100384.50;;;12.91;71.22
60642;BME280;46837;52.446;-1.930;2023-05-08T05:13:09;100384.63;;;12.96;70.95
60642;BME280;46837;52.446;-1.930;2023-05-08T05:14:09;100382.73;;;12.92;71.03
60642;BME280;46837;52.446;-1.930;2023-05-08T05:15:09;100383.50;;;12.94;71.02
60642;BME280;46837;52.446;-1.930;2023-05-08T05:16:09;100381.50;;;13.01;70.82
60642;BME280;46837;52.446;-1.930;2023-05-08T05:17:09;100382.36;;;13.05;70.73
60642;BME280;46837;52.446;-1.930;2023-05-08T05:18:09;100382.57;;;13.07;70.52
60642;BME280;46837;52.446;-1.930;2023-05-08T05:19:09;100382.89;;;13.07;70.52
60642;BME280;46837;52.446;-1.930;2023-05-08T05:20:09;100382.24;;;13.07;70.64
60642;BME280;46837;52.446;-1.930;2023-05-08T05:21:09;100379.95;;;13.04;70.67
60642;BME280;46837;52.446;-1.930;2023-05-08T05:22:09;100380.88;;;13.05;70.62
60642;BME280;46837;52.446;-1.930;2023-05-08T05:23:09;100381.82;;;13.05;70.64
60642;BME280;46837;52.446;-1.930;2023-05-08T05:24:09;100382.06;;;13.10;70.47
60642;BME280;46837;52.446;-1.930;2023-05-08T05:25:09;100384.16;;;13.08;70.50
60642;BME280;46837;52.446;-1.930;2023-05-08T05:26:09;100383.03;;;13.00;70.77
60642;BME280;46837;52.446;-1.930;2023-05-08T05:27:09;100382.34;;;12.98;70.78
60642;BME280;46837;52.446;-1.930;2023-05-08T05:28:09;100383.87;;;12.97;70.86
60642;BME280;46837;52.446;-1.930;2023-05-08T05:29:09;100386.36;;;13.03;70.74
60642;BME280;46837;52.446;-1.930;2023-05-08T05:30:09;100386.60;;;13.01;70.64
60642;BME280;46837;52.446;-1.930;2023-05-08T05:31:09;100384.93;;;13.07;70.74
60642;BME280;46837;52.446;-1.930;2023-05-08T05:32:11;100388.82;;;13.07;70.75
60642;BME280;46837;52.446;-1.930;2023-05-08T05:33:09;100383.97;;;13.01;70.84
60642;BME280;46837;52.446;-1.930;2023-05-08T05:34:09;100386.58;;;13.02;70.88
60642;BME280;46837;52.446;-1.930;2023-05-08T05:35:09;100386.59;;;13.03;70.95
60642;BME280;46837;52.446;-1.930;2023-05-08T05:36:09;100383.27;;;13.12;70.62
60642;BME280;46837;52.446;-1.930;2023-05-08T05:37:09;100386.22;;;13.15;70.46
60642;BME280;46837;52.446;-1.930;2023-05-08T05:38:09;100388.62;;;13.18;70.50
60642;BME280;46837;52.446;-1.930;2023-05-08T05:39:09;100390.96;;;13.21;70.51
60642;BME280;46837;52.446;-1.930;2023-05-08T05:40:09;100392.24;;;13.24;70.40